Time;durP1;ratioP1;P1;durP2;ratioP2;P2;SDS_P1;SDS_P2;PMS_P1;PMS_P2;Temp;Humidity;BMP_temperature;BMP_pressure;BME280_temperature;BME280_humidity;BME280_pressure;Samples;Min_cycle;Max_cycle;Signal;HPM_P1;HPM_P2
2022/09/04 00:02:02;;;;;;;7.90;7.10;;;18.70;99.90;;;;;;5054424;28;20815;-91
2022/09/04 00:04:51;;;;;;;9.07;7.40;;;18.70;99.90;;;;;;5036861;28;20477;-88
2022/09/04 00:07:34;;;;;;;7.13;6.43;;;18.60;99.90;;;;;;5036886;28;20940;-91
2022/09/04 00:10:35;;;;;;;7.30;6.47;;;18.60;99.90;;;;;;5054227;28;20440;-91
2022/09/04 00:13:27;;;;;;;7.63;6.57;;;18.60;99.90;;;;;;5037114;28;20428;-91
2022/09/04 00:16:19;;;;;;;9.33;6.30;;;18.60;99.90;;;;;;5036926;28;20490;-91
2022/09/04 00:18:53;;;;;;;7.40;6.50;;;18.50;99.90;;;;;;5041529;28;20411;-91
2022/09/04 00:21:23;;;;;;;8.03;6.17;;;18.50;99.90;;;;;;5056420;28;20403;-91
2022/09/04 00:23:57;;;;;;;7.10;6.40;;;18.50;99.90;;;;;;5038135;28;20781;-91
2022/09/04 00:26:45;;;;;;;7.20;6.13;;;18.50;99.90;;;;;;5044746;28;20476;-91
2022/09/04 00:29:36;;;;;;;7.27;6.53;;;18.50;99.90;;;;;;5054153;28;20490;-89
2022/09/04 00:32:30;;;;;;;6.93;6.23;;;18.40;99.90;;;;;;5054131;28;20420;-91
2022/09/04 00:35:23;;;;;;;8.90;6.57;;;18.40;99.90;;;;;;5036289;28;20510;-91
2022/09/04 00:38:20;;;;;;;7.27;6.57;;;18.30;99.90;;;;;;5033889;28;20507;-92
2022/09/04 00:41:09;;;;;;;7.10;6.40;;;18.30;99.90;;;;;;5054322;28;20458;-91
2022/09/04 00:44:00;;;;;;;6.50;5.77;;;18.30;99.90;;;;;;5036473;28;20423;-91
2022/09/04 00:46:50;;;;;;;6.40;5.80;;;18.30;99.90;;;;;;5056653;28;20424;-91
2022/09/04 00:49:57;;;;;;;7.10;6.40;;;18.20;99.90;;;;;;5055121;28;20444;-90
2022/09/04 00:52:58;;;;;;;6.90;6.20;;;18.20;99.90;;;;;;5037689;28;20412;-90
2022/09/04 00:55:52;;;;;;;7.27;6.53;;;18.20;99.90;;;;;;5055487;28;20789;-91
2022/09/04 00:58:50;;;;;;;7.57;6.83;;;18.20;99.90;;;;;;5055507;28;20409;-92
2022/09/04 01:01:22;;;;;;;6.63;5.97;;;18.10;99.90;;;;;;5038742;28;20432;-91
2022/09/04 01:04:00;;;;;;;8.23;7.27;;;18.10;99.90;;;;;;5039267;28;20413;-90
2022/09/04 01:07:07;;;;;;;7.67;6.30;;;18.00;99.90;;;;;;5041161;28;20428;-91
2022/09/04 01:09:36;;;;;;;6.97;6.27;;;18.00;99.90;;;;;;5056839;28;20442;-91
2022/09/04 01:12:27;;;;;;;9.77;6.67;;;18.00;99.90;;;;;;5059082;28;20456;-91
2022/09/04 01:15:25;;;;;;;7.73;6.77;;;18.00;99.90;;;;;;5040289;28;20455;-91
2022/09/04 01:18:05;;;;;;;7.30;5.93;;;18.00;99.90;;;;;;5034560;28;20453;-91
2022/09/04 01:21:05;;;;;;;6.70;6.00;;;18.00;99.90;;;;;;5040544;28;20814;-91
2022/09/04 01:23:49;;;;;;;10.33;6.17;;;17.90;99.90;;;;;;5040493;28;20456;-91
2022/09/04 01:26:42;;;;;;;7.07;6.10;;;17.90;99.90;;;;;;5040450;28;21000;-91
2022/09/04 01:29:10;;;;;;;6.37;5.77;;;17.90;99.90;;;;;;5033425;28;20451;-90
2022/09/04 01:31:53;;;;;;;6.93;5.97;;;17.90;99.90;;;;;;5043059;28;20416;-91
2022/09/04 01:34:58;;;;;;;6.93;6.33;;;17.80;99.90;;;;;;5057152;28;20478;-91
2022/09/04 01:37:42;;;;;;;6.10;5.50;;;17.80;99.90;;;;;;5039444;28;20425;-91
2022/09/04 01:40:32;;;;;;;7.77;6.67;;;17.80;99.90;;;;;;5039837;28;20537;-90
2022/09/04 01:43:04;;;;;;;6.90;6.20;;;17.90;99.90;;;;;;5063296;28;20459;-91
2022/09/04 01:45:39;;;;;;;7.30;6.57;;;17.90;99.90;;;;;;5057734;28;20446;-91
2022/09/04 01:48:06;;;;;;;6.77;6.07;;;17.90;99.90;;;;;;5057521;28;20403;-90
2022/09/04 01:50:35;;;;;;;6.87;5.43;;;17.90;99.90;;;;;;5040290;28;20490;-91
2022/09/04 01:53:05;;;;;;;7.60;6.20;;;17.80;99.90;;;;;;5059044;28;20462;-91
2022/09/04 01:55:47;;;;;;;6.50;5.80;;;17.80;99.90;;;;;;5058943;28;20802;-90
2022/09/04 01:58:27;;;;;;;7.40;5.73;;;17.80;99.90;;;;;;5040480;28;20471;-91
2022/09/04 02:01:19;;;;;;;6.97;6.27;;;17.80;99.90;;;;;;5058722;28;20458;-91
2022/09/04 02:04:03;;;;;;;7.23;6.10;;;17.80;99.90;;;;;;5061109;28;20410;-91
2022/09/04 02:06:54;;;;;;;7.73;5.40;;;17.70;99.90;;;;;;5056678;28;20420;-91
2022/09/04 02:09:33;;;;;;;9.07;6.73;;;17.70;99.90;;;;;;5057358;28;20455;-91
2022/09/04 02:12:24;;;;;;;7.80;7.00;;;17.70;99.90;;;;;;5039702;28;20415;-91
2022/09/04 02:15:41;;;;;;;8.80;6.83;;;17.70;99.90;;;;;;5042139;28;20466;-91
2022/09/04 02:18:13;;;;;;;8.83;5.97;;;17.70;99.90;;;;;;5014211;28;20983;-91
2022/09/04 02:20:45;;;;;;;6.37;5.77;;;17.70;99.90;;;;;;5040304;28;20550;-91
2022/09/04 02:23:17;;;;;;;7.53;6.70;;;17.70;99.90;;;;;;5041167;28;20463;-90
2022/09/04 02:26:13;;;;;;;8.63;6.70;;;17.70;99.90;;;;;;5040303;28;20479;-91
2022/09/04 02:28:46;;;;;;;7.33;6.03;;;17.70;99.90;;;;;;5046351;28;20505;-91
2022/09/04 02:31:37;;;;;;;7.50;6.70;;;17.70;99.90;;;;;;5038194;28;20451;-90
2022/09/04 02:34:22;;;;;;;7.57;6.57;;;17.70;99.90;;;;;;5055945;28;20933;-91
2022/09/04 02:37:21;;;;;;;7.90;6.43;;;17.70;99.90;;;;;;5038185;28;20455;-90
2022/09/04 02:40:10;;;;;;;8.10;6.53;;;17.70;99.90;;;;;;5055954;28;20483;-91
2022/09/04 02:43:01;;;;;;;7.30;6.60;;;17.60;99.90;;;;;;5061017;28;20458;-92
2022/09/04 02:45:58;;;;;;;6.17;5.57;;;17.60;99.90;;;;;;5058076;28;20481;-91
2022/09/04 02:49:02;;;;;;;6.37;5.73;;;17.60;99.90;;;;;;5040883;28;20411;-91
2022/09/04 02:52:04;;;;;;;6.43;5.83;;;17.60;99.90;;;;;;5058462;28;20403;-91
2022/09/04 02:55:29;;;;;;;8.73;5.90;;;17.60;99.90;;;;;;5066784;28;20509;-91
2022/09/04 02:57:57;;;;;;;6.80;6.00;;;17.50;99.90;;;;;;4994507;28;20488;-91
2022/09/04 03:01:01;;;;;;;7.03;5.60;;;17.50;99.90;;;;;;4994302;28;20457;-91
2022/09/04 03:03:33;;;;;;;6.03;5.03;;;17.50;99.90;;;;;;5037887;28;20475;-91
2022/09/04 03:06:07;;;;;;;6.90;6.20;;;17.50;99.90;;;;;;5055857;28;20474;-91
2022/09/04 03:08:44;;;;;;;6.17;5.57;;;17.40;99.90;;;;;;5055539;28;20392;-91
2022/09/04 03:11:32;;;;;;;6.53;5.33;;;17.40;99.90;;;;;;5040176;28;20447;-90
2022/09/04 03:14:02;;;;;;;5.80;5.30;;;17.40;99.90;;;;;;5038304;28;20403;-91
2022/09/04 03:16:40;;;;;;;6.30;5.20;;;17.40;99.90;;;;;;5038522;28;20450;-92
2022/09/04 03:19:29;;;;;;;5.23;4.63;;;17.30;99.90;;;;;;5038821;28;20434;-91
2022/09/04 03:22:06;;;;;;;5.70;5.17;;;17.30;99.90;;;;;;5057288;28;20454;-90
2022/09/04 03:25:11;;;;;;;6.20;5.70;;;17.30;99.90;;;;;;5043099;28;20811;-91
2022/09/04 03:27:37;;;;;;;5.37;4.87;;;17.30;99.90;;;;;;5037229;28;20427;-91
2022/09/04 03:30:12;;;;;;;5.30;4.80;;;17.20;99.90;;;;;;5037330;28;20453;-90
2022/09/04 03:33:06;;;;;;;5.87;5.27;;;17.20;99.90;;;;;;5054065;28;20713;-92
2022/09/04 03:35:39;;;;;;;5.60;5.10;;;17.20;99.90;;;;;;5055115;28;20489;-91
2022/09/04 03:38:17;;;;;;;6.17;5.57;;;17.20;99.90;;;;;;5055455;28;20836;-91
2022/09/04 03:41:03;;;;;;;5.80;5.30;;;17.20;99.90;;;;;;5041466;28;20970;-91
2022/09/04 03:43:59;;;;;;;7.70;6.17;;;17.20;99.90;;;;;;5039733;28;20470;-91
2022/09/04 03:46:49;;;;;;;6.30;5.70;;;17.20;99.90;;;;;;5040128;28;20427;-91
2022/09/04 03:49:37;;;;;;;5.67;5.17;;;17.10;99.90;;;;;;5042733;28;20454;-91
2022/09/04 03:52:44;;;;;;;9.20;5.53;;;17.10;99.90;;;;;;5040367;28;20419;-91
2022/09/04 03:55:30;;;;;;;6.57;5.60;;;17.10;99.90;;;;;;5037424;28;21035;-91
2022/09/04 03:58:01;;;;;;;5.47;4.97;;;17.10;99.90;;;;;;5055694;28;20466;-91
2022/09/04 04:00:35;;;;;;;5.70;5.20;;;17.10;99.90;;;;;;5038176;28;20454;-91
2022/09/04 04:03:50;;;;;;;6.90;6.20;;;17.10;99.90;;;;;;5037414;28;20513;-91
2022/09/04 04:06:43;;;;;;;8.70;5.40;;;17.00;99.90;;;;;;5041563;28;20422;-91
2022/09/04 04:09:30;;;;;;;5.80;5.30;;;17.00;99.90;;;;;;5040805;28;20447;-91
2022/09/04 04:11:58;;;;;;;5.80;5.20;;;17.00;99.90;;;;;;5057885;28;20399;-91
2022/09/04 04:14:43;;;;;;;5.40;4.63;;;17.00;99.90;;;;;;5056553;28;20856;-91
2022/09/04 04:17:46;;;;;;;6.40;5.37;;;17.00;99.90;;;;;;5057387;28;20465;-91
2022/09/04 04:20:30;;;;;;;6.30;5.70;;;16.90;99.90;;;;;;5039886;28;21060;-90
2022/09/04 04:23:21;;;;;;;6.13;5.53;;;17.00;99.90;;;;;;5059284;28;20474;-91
2022/09/04 04:26:07;;;;;;;5.70;5.13;;;16.90;99.90;;;;;;5061458;28;20454;-91
2022/09/04 04:28:55;;;;;;;7.50;5.50;;;16.90;99.90;;;;;;5036779;28;20430;-92
2022/09/04 04:32:12;;;;;;;6.80;5.70;;;16.90;99.90;;;;;;5037703;28;20490;-91
2022/09/04 04:34:57;;;;;;;6.10;5.47;;;16.90;99.90;;;;;;5052076;28;20960;-91
2022/09/04 04:37:39;;;;;;;6.77;6.03;;;16.90;99.90;;;;;;5062184;28;20407;-90
2022/09/04 04:40:18;;;;;;;7.00;5.70;;;16.90;99.90;;;;;;5039851;28;20463;-91
2022/09/04 04:43:09;;;;;;;6.20;5.60;;;16.90;99.90;;;;;;5038526;28;20838;-91
2022/09/04 04:46:00;;;;;;;7.40;6.33;;;16.90;99.90;;;;;;5043264;28;20912;-91
2022/09/04 04:48:54;;;;;;;6.13;5.53;;;16.90;99.90;;;;;;5042973;28;20418;-91
2022/09/04 04:51:54;;;;;;;6.40;5.73;;;16.90;99.90;;;;;;5043049;28;20553;-91
2022/09/04 04:54:21;;;;;;;8.03;6.67;;;16.90;99.90;;;;;;5060486;28;20481;-92
2022/09/04 04:57:13;;;;;;;6.53;5.93;;;17.00;99.90;;;;;;5060769;28;20426;-90
2022/09/04 04:59:44;;;;;;;6.87;6.17;;;17.00;99.90;;;;;;5023274;28;20482;-91
2022/09/04 05:02:40;;;;;;;11.70;6.00;;;17.00;99.90;;;;;;5041109;28;20470;-90
2022/09/04 05:05:45;;;;;;;6.13;5.53;;;17.00;99.90;;;;;;5042009;28;20549;-91
2022/09/04 05:08:32;;;;;;;8.40;7.53;;;17.10;99.90;;;;;;5043241;28;20433;-91
2022/09/04 05:11:12;;;;;;;7.47;6.67;;;17.10;99.90;;;;;;5061073;28;20493;-91
2022/09/04 05:14:20;;;;;;;10.80;8.10;;;17.10;99.90;;;;;;5060263;28;20411;-91
2022/09/04 05:16:54;;;;;;;7.83;7.03;;;17.20;99.90;;;;;;5023114;28;20952;-91
2022/09/04 05:19:20;;;;;;;9.30;7.33;;;17.20;99.90;;;;;;5041252;28;20450;-91
2022/09/04 05:22:02;;;;;;;11.00;8.07;;;17.20;99.90;;;;;;5058927;28;20982;-90
2022/09/04 05:24:44;;;;;;;9.27;8.20;;;17.30;99.90;;;;;;5042213;28;20678;-91
2022/09/04 05:27:51;;;;;;;10.87;8.20;;;17.40;99.90;;;;;;5040327;28;20534;-91
2022/09/04 05:30:54;;;;;;;13.63;9.37;;;17.40;99.90;;;;;;5038948;28;20967;-91
2022/09/04 05:33:44;;;;;;;11.27;9.20;;;17.50;99.90;;;;;;5045213;28;20814;-91
2022/09/04 05:36:16;;;;;;;12.30;8.80;;;17.50;99.90;;;;;;5037861;28;20465;-91
2022/09/04 05:38:46;;;;;;;12.40;8.93;;;17.60;99.90;;;;;;5037391;28;20757;-90
2022/09/04 05:41:47;;;;;;;12.03;8.90;;;17.70;99.90;;;;;;5039341;28;20495;-90
2022/09/04 05:44:15;;;;;;;12.00;8.87;;;17.80;99.90;;;;;;5020758;28;20469;-91
2022/09/04 05:46:53;;;;;;;10.27;8.10;;;17.80;99.90;;;;;;5020552;28;20431;-91
2022/09/04 05:49:59;;;;;;;13.67;9.10;;;17.90;99.90;;;;;;5038592;28;20436;-91
2022/09/04 05:52:52;;;;;;;15.10;11.17;;;18.00;99.90;;;;;;5038287;28;20417;-91
2022/09/04 05:55:50;;;;;;;17.27;10.60;;;18.10;99.90;;;;;;5038400;28;20446;-91
2022/09/04 05:58:44;;;;;;;15.20;10.30;;;18.10;99.90;;;;;;5002117;28;20981;-91
2022/09/04 06:01:37;;;;;;;14.40;10.70;;;18.20;99.90;;;;;;5018953;28;20941;-91
2022/09/04 06:04:24;;;;;;;16.23;10.30;;;18.30;99.90;;;;;;5037275;28;20406;-91
2022/09/04 06:07:08;;;;;;;14.10;10.53;;;18.40;99.90;;;;;;5020061;28;20459;-91
2022/09/04 06:09:49;;;;;;;12.97;9.67;;;18.50;99.90;;;;;;5021240;28;20459;-91
2022/09/04 06:12:23;;;;;;;13.20;9.53;;;18.50;99.90;;;;;;5027225;28;20416;-91
2022/09/04 06:15:24;;;;;;;13.60;9.67;;;18.60;99.90;;;;;;5035362;28;20947;-90
2022/09/04 06:18:21;;;;;;;12.30;9.50;;;18.70;99.90;;;;;;4979521;28;20462;-91
2022/09/04 06:20:56;;;;;;;13.33;10.10;;;18.80;99.90;;;;;;5037190;28;20458;-91
2022/09/04 06:23:39;;;;;;;13.03;9.97;;;18.90;99.90;;;;;;5019017;28;20479;-92
2022/09/04 06:26:20;;;;;;;13.70;10.50;;;18.90;99.90;;;;;;5049140;28;20477;-91
2022/09/04 06:28:52;;;;;;;13.87;9.63;;;19.00;99.90;;;;;;5038772;28;20427;-91
2022/09/04 06:31:20;;;;;;;12.20;9.13;;;19.10;99.90;;;;;;5038968;28;20451;-92
2022/09/04 06:33:55;;;;;;;14.37;10.20;;;19.10;99.90;;;;;;5040223;28;20914;-90
2022/09/04 06:36:34;;;;;;;17.00;11.37;;;19.20;99.90;;;;;;5063589;28;20414;-91
2022/09/04 06:39:14;;;;;;;15.53;10.53;;;19.30;99.90;;;;;;5040431;28;20849;-91
2022/09/04 06:42:08;;;;;;;14.40;10.23;;;19.40;99.90;;;;;;5060137;28;20551;-91
2022/09/04 06:44:55;;;;;;;13.67;10.13;;;19.50;99.90;;;;;;5021396;28;20457;-91
2022/09/04 06:47:55;;;;;;;11.93;8.33;;;19.50;99.90;;;;;;5038488;28;21255;-91
2022/09/04 06:50:38;;;;;;;10.47;8.00;;;19.60;99.90;;;;;;5037985;28;20570;-91
2022/09/04 06:53:07;;;;;;;11.40;8.13;;;19.70;99.90;;;;;;5038365;28;20414;-92
2022/09/04 06:55:38;;;;;;;9.33;7.43;;;19.80;99.90;;;;;;5038073;28;20457;-91
2022/09/04 06:58:23;;;;;;;10.70;7.77;;;19.90;99.90;;;;;;5038023;28;20421;-91
2022/09/04 07:00:54;;;;;;;7.77;6.40;;;19.90;99.90;;;;;;5055686;28;20445;-90
2022/09/04 07:03:59;;;;;;;10.63;7.57;;;20.00;99.90;;;;;;5037990;28;20453;-91
2022/09/04 07:06:31;;;;;;;9.87;6.50;;;20.10;99.90;;;;;;5043430;28;20481;-91
2022/09/04 07:09:05;;;;;;;9.20;6.70;;;20.20;99.90;;;;;;5038342;28;20415;-92
2022/09/04 07:12:04;;;;;;;7.90;6.03;;;20.20;99.90;;;;;;5038878;28;20417;-90
2022/09/04 07:15:15;;;;;;;8.70;7.60;;;20.30;99.90;;;;;;5038673;28;20451;-93
2022/09/04 07:17:49;;;;;;;7.27;5.80;;;20.40;99.90;;;;;;5058105;28;20423;-93
2022/09/04 07:20:34;;;;;;;7.33;5.47;;;20.40;99.90;;;;;;5059141;28;20449;-92
2022/09/04 07:23:22;;;;;;;7.30;5.07;;;20.50;99.90;;;;;;5058994;28;21068;-91
2022/09/04 07:26:06;;;;;;;6.53;4.83;;;20.60;99.90;;;;;;5057480;28;20470;-93
2022/09/04 07:28:50;;;;;;;6.80;4.90;;;20.60;99.90;;;;;;5061033;28;20425;-93
2022/09/04 07:31:16;;;;;;;7.70;5.13;;;20.70;99.90;;;;;;5056043;28;20419;-92
2022/09/04 07:34:06;;;;;;;4.87;3.90;;;20.80;99.90;;;;;;5055740;28;20399;-90
2022/09/04 07:37:03;;;;;;;4.70;4.00;;;20.80;99.90;;;;;;5038713;28;20412;-93
2022/09/04 07:39:44;;;;;;;7.20;4.97;;;20.90;99.90;;;;;;5018691;28;20505;-91
2022/09/04 07:42:27;;;;;;;4.13;3.73;;;21.00;99.90;;;;;;5038201;28;20488;-91
2022/09/04 07:44:58;;;;;;;4.30;3.90;;;21.00;99.90;;;;;;5038624;28;20486;-92
2022/09/04 07:47:42;;;;;;;3.90;3.50;;;21.10;99.90;;;;;;5056476;28;20410;-91
2022/09/04 07:50:30;;;;;;;4.83;3.00;;;21.10;99.90;;;;;;5056983;28;20438;-93
2022/09/04 07:53:21;;;;;;;3.30;3.00;;;21.20;99.90;;;;;;5056324;28;20490;-93
2022/09/04 07:55:50;;;;;;;4.23;3.43;;;21.30;99.90;;;;;;5057257;28;20446;-93
2022/09/04 07:58:31;;;;;;;5.17;3.60;;;21.30;99.90;;;;;;5055931;28;20486;-93
2022/09/04 08:01:15;;;;;;;3.93;3.53;;;21.40;99.90;;;;;;5040217;28;20451;-93
2022/09/04 08:03:59;;;;;;;5.20;3.67;;;21.50;99.90;;;;;;5040791;28;20459;-93
2022/09/04 08:06:37;;;;;;;4.80;4.17;;;21.60;99.90;;;;;;5048588;28;20415;-93
2022/09/04 08:09:33;;;;;;;3.57;3.13;;;21.80;99.90;;;;;;5050201;28;20411;-93
2022/09/04 08:12:16;;;;;;;3.77;3.47;;;21.90;99.90;;;;;;5036978;28;20800;-94
2022/09/04 08:15:12;;;;;;;3.93;3.17;;;22.00;99.90;;;;;;5035915;28;20462;-92
2022/09/04 08:18:00;;;;;;;3.30;3.00;;;22.10;99.90;;;;;;5054422;28;20414;-93
2022/09/04 08:20:35;;;;;;;3.70;3.40;;;22.20;99.90;;;;;;5037337;28;20463;-93
2022/09/04 08:23:02;;;;;;;3.70;3.07;;;22.30;99.90;;;;;;5036798;28;20516;-93
2022/09/04 08:25:49;;;;;;;3.40;3.10;;;22.30;99.90;;;;;;5037160;28;20482;-93
2022/09/04 08:28:32;;;;;;;6.23;3.20;;;22.30;99.90;;;;;;5036661;28;20418;-93
2022/09/04 08:31:10;;;;;;;3.40;3.03;;;22.40;99.90;;;;;;5036824;28;20458;-94
2022/09/04 08:33:50;;;;;;;4.47;4.07;;;22.30;99.90;;;;;;5037599;28;20520;-93
2022/09/04 08:36:37;;;;;;;4.67;4.03;;;22.30;99.90;;;;;;5056413;28;20900;-94
2022/09/04 08:39:21;;;;;;;3.50;2.93;;;22.30;99.90;;;;;;5039328;28;20494;-93
2022/09/04 08:42:35;;;;;;;3.40;3.10;;;22.30;99.90;;;;;;5038680;28;20805;-93
2022/09/04 08:45:32;;;;;;;3.80;3.30;;;22.40;99.90;;;;;;5041044;28;20489;-93
2022/09/04 08:48:29;;;;;;;4.60;3.40;;;22.50;99.90;;;;;;5061991;28;20423;-93
2022/09/04 08:51:28;;;;;;;4.97;4.23;;;22.70;99.90;;;;;;5058210;28;20947;-93
2022/09/04 08:54:01;;;;;;;3.77;3.23;;;22.90;99.90;;;;;;5034940;28;20508;-93
2022/09/04 08:57:11;;;;;;;4.40;3.97;;;22.90;99.90;;;;;;5037475;28;20418;-93
2022/09/04 08:59:55;;;;;;;4.40;3.80;;;22.90;99.90;;;;;;4994392;28;20452;-92
2022/09/04 09:02:26;;;;;;;3.33;3.03;;;22.90;99.90;;;;;;4977881;28;20502;-92
2022/09/04 09:05:10;;;;;;;4.80;3.93;;;22.80;99.90;;;;;;5017380;28;20452;-93
2022/09/04 09:08:02;;;;;;;3.87;3.57;;;22.80;99.90;;;;;;5055450;28;20408;-93
2022/09/04 09:11:03;;;;;;;3.43;3.13;;;22.80;99.90;;;;;;5009563;28;20936;-93
2022/09/04 09:13:50;;;;;;;4.07;3.40;;;22.80;99.90;;;;;;5006897;28;20980;-93
2022/09/04 09:16:34;;;;;;;3.80;3.30;;;22.80;99.90;;;;;;5043880;28;20953;-93
2022/09/04 09:19:32;;;;;;;4.17;2.93;;;22.80;99.90;;;;;;5036207;28;20820;-93
2022/09/04 09:22:22;;;;;;;4.30;3.37;;;22.90;99.90;;;;;;4992555;28;20467;-93
2022/09/04 09:25:15;;;;;;;3.33;3.03;;;22.90;99.90;;;;;;5037830;28;20453;-92
2022/09/04 09:28:05;;;;;;;3.30;3.00;;;22.90;99.90;;;;;;5036914;28;20415;-94
2022/09/04 09:30:45;;;;;;;3.87;3.30;;;23.00;99.90;;;;;;5056030;28;20454;-93
2022/09/04 09:33:39;;;;;;;3.30;3.00;;;23.00;99.90;;;;;;5041127;28;20475;-93
2022/09/04 09:36:26;;;;;;;3.40;3.10;;;23.10;99.90;;;;;;5058568;28;20457;-93
2022/09/04 09:39:09;;;;;;;3.30;3.00;;;23.20;99.90;;;;;;5058693;28;20413;-92
2022/09/04 09:42:03;;;;;;;2.63;2.43;;;23.20;99.90;;;;;;5041608;28;20444;-93
2022/09/04 09:45:03;;;;;;;3.73;2.70;;;23.30;99.90;;;;;;5059861;28;20962;-93
2022/09/04 09:47:31;;;;;;;3.70;3.40;;;23.40;99.90;;;;;;5042347;28;20427;-92
2022/09/04 09:50:05;;;;;;;2.97;2.77;;;23.40;99.90;;;;;;5045512;28;20523;-93
2022/09/04 09:52:55;;;;;;;2.70;2.40;;;23.50;99.90;;;;;;5056894;28;20403;-94
2022/09/04 09:55:55;;;;;;;3.50;3.20;;;23.60;99.90;;;;;;5040216;28;20450;-93
2022/09/04 09:58:55;;;;;;;3.80;3.50;;;23.60;99.90;;;;;;5040075;28;20455;-92
2022/09/04 10:01:24;;;;;;;3.70;3.03;;;23.70;99.90;;;;;;5005991;28;20436;-93
2022/09/04 10:04:21;;;;;;;3.17;2.87;;;23.70;99.90;;;;;;5040549;28;20461;-93
2022/09/04 10:07:20;;;;;;;3.20;2.77;;;23.70;99.90;;;;;;5057678;28;20455;-93
2022/09/04 10:10:17;;;;;;;3.57;2.67;;;23.70;99.90;;;;;;5040174;28;20944;-93
2022/09/04 10:13:04;;;;;;;2.97;2.23;;;23.80;99.90;;;;;;5040990;28;20416;-93
2022/09/04 10:15:36;;;;;;;2.40;2.20;;;23.80;99.90;;;;;;5059347;28;20442;-92
2022/09/04 10:18:22;;;;;;;2.37;2.17;;;23.90;99.90;;;;;;5058681;28;20408;-91
2022/09/04 10:21:11;;;;;;;5.87;2.83;;;23.90;99.90;;;;;;5041353;28;20442;-92
2022/09/04 10:24:22;;;;;;;2.60;2.40;;;24.00;99.90;;;;;;5058880;28;20457;-93
2022/09/04 10:27:06;;;;;;;2.70;2.50;;;24.00;99.90;;;;;;5041016;28;20468;-92
2022/09/04 10:30:11;;;;;;;3.97;2.20;;;24.00;99.90;;;;;;5041048;28;20546;-92
2022/09/04 10:33:09;;;;;;;2.70;2.50;;;24.10;99.90;;;;;;5041074;28;20417;-92
2022/09/04 10:35:44;;;;;;;2.50;2.30;;;24.10;99.90;;;;;;5041166;28;20496;-92
2022/09/04 10:40:34;;;;;;;2.40;2.10;;;24.10;99.90;;;;;;5041383;28;20780;-92
2022/09/04 10:41:43;;;;;;;5.57;2.73;;;24.10;99.90;;;;;;5061689;28;20406;-93
2022/09/04 10:44:24;;;;;;;2.63;2.43;;;24.20;99.90;;;;;;5048616;28;20508;-92
2022/09/04 10:47:08;;;;;;;2.90;2.70;;;24.20;99.90;;;;;;5052048;28;20429;-91
2022/09/04 10:50:11;;;;;;;2.10;1.90;;;24.30;99.90;;;;;;5039747;28;20620;-93
2022/09/04 10:53:04;;;;;;;3.13;2.40;;;24.30;99.90;;;;;;5057300;28;20404;-93
2022/09/04 10:55:51;;;;;;;2.23;2.03;;;24.30;99.90;;;;;;5040694;28;20465;-93
2022/09/04 10:58:38;;;;;;;2.47;2.17;;;24.30;99.90;;;;;;5040016;28;20422;-93
2022/09/04 11:01:19;;;;;;;3.30;1.70;;;24.30;99.90;;;;;;5039170;28;20481;-94
2022/09/04 11:04:03;;;;;;;2.10;2.00;;;24.30;99.90;;;;;;5056730;28;20464;-93
2022/09/04 11:06:54;;;;;;;3.10;2.33;;;24.30;99.90;;;;;;5057659;28;20921;-92
2022/09/04 11:09:50;;;;;;;3.23;2.60;;;24.30;99.90;;;;;;5040586;28;20465;-93
2022/09/04 11:12:43;;;;;;;2.97;2.30;;;24.30;99.90;;;;;;5056405;28;20411;-93
2022/09/04 11:15:30;;;;;;;2.60;2.40;;;24.30;99.90;;;;;;5041048;28;20446;-92
2022/09/04 11:18:32;;;;;;;1.87;1.77;;;24.40;99.90;;;;;;5042400;28;20494;-92
2022/09/04 11:21:35;;;;;;;2.83;1.90;;;24.40;99.90;;;;;;5002245;28;20457;-93
2022/09/04 11:24:39;;;;;;;1.83;1.73;;;24.40;99.90;;;;;;5055995;28;20512;-93
2022/09/04 11:27:32;;;;;;;2.57;2.37;;;24.40;99.90;;;;;;5055506;28;20898;-94
2022/09/04 11:30:15;;;;;;;2.50;2.30;;;24.40;99.90;;;;;;5038487;28;20450;-93
2022/09/04 11:32:53;;;;;;;3.60;2.10;;;24.50;99.90;;;;;;5055712;28;20448;-92
2022/09/04 11:35:35;;;;;;;2.33;2.13;;;24.50;99.90;;;;;;5038019;28;20461;-92
2022/09/04 11:38:16;;;;;;;2.10;2.00;;;24.60;99.90;;;;;;5055245;28;20406;-93
2022/09/04 11:40:47;;;;;;;1.80;1.70;;;24.60;99.90;;;;;;5056210;28;20852;-93
2022/09/04 11:43:18;;;;;;;2.40;2.17;;;24.60;99.90;;;;;;5055427;28;20996;-92
2022/09/04 11:46:05;;;;;;;2.50;2.30;;;24.70;99.90;;;;;;5038076;28;20465;-93
2022/09/04 11:48:52;;;;;;;2.30;2.10;;;24.70;99.90;;;;;;5055712;28;20406;-92
2022/09/04 11:51:56;;;;;;;3.03;2.10;;;24.70;99.90;;;;;;5040985;28;20840;-93
2022/09/04 11:54:56;;;;;;;2.00;1.90;;;24.70;99.90;;;;;;4974097;28;20823;-93
2022/09/04 11:57:43;;;;;;;1.87;1.77;;;24.70;99.90;;;;;;5038334;28;20422;-93
2022/09/04 12:00:17;;;;;;;1.83;1.73;;;24.70;99.90;;;;;;5036821;28;20485;-93
2022/09/04 12:03:16;;;;;;;1.70;1.43;;;24.70;99.90;;;;;;5054613;28;20470;-92
2022/09/04 12:06:23;;;;;;;2.03;1.73;;;24.70;99.90;;;;;;5037167;28;20481;-93
2022/09/04 12:09:26;;;;;;;1.73;1.63;;;24.80;99.90;;;;;;5054846;28;20407;-93
2022/09/04 12:12:13;;;;;;;2.27;2.07;;;24.90;99.90;;;;;;5037468;28;20560;-93
2022/09/04 12:14:41;;;;;;;2.33;1.60;;;24.90;99.90;;;;;;5037453;28;20978;-93
2022/09/04 12:18:01;;;;;;;2.73;1.80;;;24.90;99.90;;;;;;5054962;28;20414;-93
2022/09/04 12:21:12;;;;;;;2.40;2.20;;;25.00;99.90;;;;;;4960876;28;20454;-92
2022/09/04 12:24:01;;;;;;;3.20;2.50;;;25.00;99.90;;;;;;4959042;28;20556;-93
2022/09/04 12:26:40;;;;;;;1.90;1.60;;;25.00;99.90;;;;;;5015584;28;20574;-93
2022/09/04 12:29:24;;;;;;;1.90;1.80;;;25.00;99.90;;;;;;5037485;28;20421;-94
2022/09/04 12:31:50;;;;;;;1.80;1.70;;;25.00;99.90;;;;;;5042814;28;20411;-93
2022/09/04 12:34:28;;;;;;;1.80;1.70;;;25.00;99.90;;;;;;5037116;28;20873;-93
2022/09/04 12:37:05;;;;;;;2.00;1.90;;;25.00;99.90;;;;;;5037446;28;20261;-93
2022/09/04 12:40:10;;;;;;;1.80;1.70;;;25.00;99.90;;;;;;5037991;28;20955;-92
2022/09/04 12:42:56;;;;;;;2.40;2.20;;;25.00;99.90;;;;;;5038637;28;20494;-93
2022/09/04 12:45:22;;;;;;;1.90;1.80;;;25.10;99.90;;;;;;5038024;28;20947;-93
2022/09/04 12:48:13;;;;;;;2.00;1.90;;;25.10;99.90;;;;;;5055291;28;20411;-93
2022/09/04 12:50:43;;;;;;;1.63;1.53;;;25.10;99.90;;;;;;5038367;28;20542;-93
2022/09/04 12:53:25;;;;;;;1.83;1.73;;;25.10;99.90;;;;;;5040126;28;20416;-93
2022/09/04 12:56:12;;;;;;;2.60;2.40;;;25.10;99.90;;;;;;5038833;28;20449;-93
2022/09/04 12:59:11;;;;;;;3.30;2.20;;;25.10;99.90;;;;;;5056627;28;20394;-93
2022/09/04 13:01:48;;;;;;;2.13;1.93;;;25.10;99.90;;;;;;5038766;28;20437;-93
2022/09/04 13:04:21;;;;;;;1.70;1.60;;;25.20;99.90;;;;;;5040048;28;20518;-93
2022/09/04 13:07:19;;;;;;;2.03;1.83;;;25.20;99.90;;;;;;5044532;28;20441;-93
2022/09/04 13:10:11;;;;;;;1.90;1.80;;;25.20;99.90;;;;;;5058195;28;20503;-93
2022/09/04 13:12:54;;;;;;;1.87;1.73;;;25.20;99.90;;;;;;5059184;28;20460;-92
2022/09/04 13:15:32;;;;;;;2.53;2.00;;;25.20;99.90;;;;;;5041551;28;20438;-93
2022/09/04 13:18:23;;;;;;;1.73;1.63;;;25.20;99.90;;;;;;5041594;28;20468;-92
2022/09/04 13:20:56;;;;;;;2.20;2.00;;;25.20;99.90;;;;;;5061319;28;20442;-93
2022/09/04 13:23:22;;;;;;;1.87;1.77;;;25.30;99.90;;;;;;5042440;28;20995;-93
2022/09/04 13:26:19;;;;;;;1.90;1.80;;;25.30;99.90;;;;;;5041392;28;20477;-93
2022/09/04 13:29:00;;;;;;;2.47;2.10;;;25.30;99.90;;;;;;5064782;28;20438;-93
2022/09/04 13:31:32;;;;;;;2.93;1.80;;;25.30;99.90;;;;;;5057554;28;20986;-93
2022/09/04 13:34:16;;;;;;;1.87;1.77;;;25.20;99.90;;;;;;5057443;28;20414;-93
2022/09/04 13:37:08;;;;;;;2.30;1.80;;;25.20;99.90;;;;;;5039827;28;21033;-93
2022/09/04 13:39:49;;;;;;;2.33;2.13;;;25.20;99.90;;;;;;5040422;28;20454;-93
2022/09/04 13:42:18;;;;;;;1.87;1.73;;;25.10;99.90;;;;;;5057709;28;20459;-93
2022/09/04 13:45:04;;;;;;;1.80;1.70;;;25.10;99.90;;;;;;5057778;28;20469;-94
2022/09/04 13:47:36;;;;;;;2.10;2.00;;;25.10;99.90;;;;;;5042381;28;20759;-92
2022/09/04 13:50:35;;;;;;;2.53;1.77;;;25.00;99.90;;;;;;5042068;28;20490;-93
2022/09/04 13:53:26;;;;;;;2.07;1.90;;;25.00;99.90;;;;;;5060878;28;20499;-93
2022/09/04 13:55:57;;;;;;;2.27;2.07;;;25.00;99.90;;;;;;5057349;28;20456;-93
2022/09/04 13:58:39;;;;;;;2.40;1.50;;;25.00;99.90;;;;;;5057283;28;20394;-93
2022/09/04 14:01:14;;;;;;;2.00;1.90;;;25.00;99.90;;;;;;5039679;28;20465;-93
2022/09/04 14:03:54;;;;;;;1.93;1.80;;;25.00;99.90;;;;;;5056953;28;20966;-93
2022/09/04 14:06:24;;;;;;;1.87;1.77;;;25.00;99.90;;;;;;5039089;28;20508;-93
2022/09/04 14:08:54;;;;;;;1.70;1.60;;;25.00;99.90;;;;;;5039194;28;20787;-93
2022/09/04 14:11:44;;;;;;;1.87;1.77;;;25.00;99.90;;;;;;5039169;28;20414;-93
2022/09/04 14:14:10;;;;;;;1.47;1.37;;;25.10;99.90;;;;;;5039478;28;20459;-92
2022/09/04 14:16:40;;;;;;;1.60;1.50;;;25.10;99.90;;;;;;5038784;28;20430;-92
2022/09/04 14:19:31;;;;;;;2.50;1.80;;;25.10;99.90;;;;;;5040219;28;20427;-93
2022/09/04 14:22:01;;;;;;;2.03;1.93;;;25.20;99.90;;;;;;5040175;28;20418;-93
2022/09/04 14:24:55;;;;;;;2.00;1.70;;;25.20;99.90;;;;;;5058080;28;20449;-93